createdAt,value
2019-03-11T00:02:03.346Z,1.93
2019-03-11T00:04:32.310Z,1.53
2019-03-11T00:07:01.223Z,1.90
2019-03-11T00:09:30.055Z,1.60
2019-03-11T00:11:59.260Z,1.70
2019-03-11T00:14:28.175Z,1.73
2019-03-11T00:16:57.310Z,1.97
2019-03-11T00:22:07.513Z,1.63
2019-03-11T00:24:36.405Z,1.77
2019-03-11T00:27:05.585Z,1.80
2019-03-11T00:29:34.579Z,1.70
2019-03-11T00:32:03.490Z,1.80
2019-03-11T00:34:32.377Z,1.80
2019-03-11T00:37:01.319Z,1.80
2019-03-11T00:39:30.213Z,1.40
2019-03-11T00:41:59.347Z,2.27
2019-03-11T00:44:28.674Z,2.07
2019-03-11T00:46:57.834Z,1.97
2019-03-11T00:49:26.730Z,1.80
2019-03-11T00:51:55.555Z,2.47
2019-03-11T00:54:24.859Z,1.67
2019-03-11T00:56:54.809Z,1.87
2019-03-11T00:59:23.694Z,1.70
2019-03-11T01:01:52.629Z,1.50
2019-03-11T01:04:21.611Z,2.10
2019-03-11T01:06:50.555Z,1.57
2019-03-11T01:09:19.444Z,1.53
2019-03-11T01:11:48.250Z,2.17
2019-03-11T01:14:17.816Z,1.53
2019-03-11T01:16:47.078Z,1.47
2019-03-11T01:19:16.024Z,1.73
2019-03-11T01:21:45.018Z,1.70
2019-03-11T01:24:14.284Z,1.53
2019-03-11T01:26:43.498Z,1.23
2019-03-11T01:29:12.453Z,1.60
2019-03-11T01:31:41.363Z,1.50
2019-03-11T01:34:10.483Z,1.43
2019-03-11T01:36:39.438Z,1.53
2019-03-11T01:39:08.972Z,1.70
2019-03-11T01:41:37.839Z,1.80
2019-03-11T01:44:06.996Z,1.30
2019-03-11T01:46:35.886Z,1.40
2019-03-11T01:49:04.760Z,2.37
2019-03-11T01:51:33.659Z,1.40
2019-03-11T01:54:02.871Z,1.97
2019-03-11T01:56:31.762Z,1.87
2019-03-11T01:59:01.041Z,1.63
2019-03-11T02:01:30.325Z,1.80
2019-03-11T02:03:59.225Z,1.60
2019-03-11T02:06:28.120Z,1.37
2019-03-11T02:08:57.022Z,1.50
2019-03-11T02:11:26.348Z,1.47
2019-03-11T02:13:55.421Z,1.47
2019-03-11T02:16:25.103Z,1.60
2019-03-11T02:18:54.384Z,1.83
2019-03-11T02:21:25.136Z,2.20
2019-03-11T02:23:53.945Z,1.90
2019-03-11T02:26:23.076Z,2.07
2019-03-11T02:28:51.986Z,2.40
2019-03-11T02:31:20.886Z,1.93
2019-03-11T02:33:49.848Z,1.53
2019-03-11T02:36:19.569Z,2.23
2019-03-11T02:38:48.405Z,2.17
2019-03-11T02:41:17.341Z,1.90
2019-03-11T02:43:50.829Z,1.63
2019-03-11T02:46:19.734Z,1.83
2019-03-11T02:48:49.264Z,2.27
2019-03-11T02:51:19.004Z,1.60
2019-03-11T02:53:47.937Z,2.40
2019-03-11T02:56:18.773Z,1.73
2019-03-11T02:58:47.440Z,2.10
2019-03-11T03:01:37.275Z,2.60
2019-03-11T03:04:10.968Z,2.23
2019-03-11T03:06:39.861Z,2.10
2019-03-11T03:09:15.658Z,2.10
2019-03-11T03:11:44.710Z,2.10
2019-03-11T03:14:13.711Z,2.13
2019-03-11T03:16:43.770Z,1.90
2019-03-11T03:19:13.001Z,1.77
2019-03-11T03:21:43.498Z,1.87
2019-03-11T03:24:12.407Z,2.03
2019-03-11T03:26:41.516Z,1.73
2019-03-11T03:29:11.008Z,1.70
2019-03-11T03:31:40.010Z,1.70
2019-03-11T03:34:09.037Z,2.53
2019-03-11T03:36:38.287Z,1.63
2019-03-11T03:39:08.297Z,2.30
2019-03-11T03:41:37.464Z,1.70
2019-03-11T03:44:07.830Z,1.83
2019-03-11T03:46:36.757Z,2.23
2019-03-11T03:49:05.666Z,2.03
2019-03-11T03:51:34.900Z,2.20
2019-03-11T03:54:04.146Z,2.30
2019-03-11T03:56:33.378Z,2.20
2019-03-11T03:59:03.039Z,2.27
2019-03-11T04:01:33.017Z,2.23
2019-03-11T04:04:04.814Z,2.27
2019-03-11T04:06:33.724Z,2.33
2019-03-11T04:09:04.535Z,2.20
2019-03-11T04:11:33.482Z,2.20
2019-03-11T04:14:02.464Z,2.43
2019-03-11T04:16:31.792Z,2.77
2019-03-11T04:19:01.089Z,1.93
2019-03-11T04:21:30.249Z,1.90
2019-03-11T04:23:59.675Z,1.77
2019-03-11T04:27:23.322Z,2.30
2019-03-11T04:29:53.104Z,2.43
2019-03-11T04:32:22.019Z,1.93
2019-03-11T04:34:51.762Z,2.60
2019-03-11T04:37:20.629Z,2.47
2019-03-11T04:39:50.019Z,2.40
2019-03-11T04:42:19.117Z,2.20
2019-03-11T04:44:48.542Z,2.13
2019-03-11T04:47:17.424Z,2.60
2019-03-11T04:49:47.117Z,3.03
2019-03-11T04:52:16.316Z,2.53
2019-03-11T04:54:45.190Z,2.50
2019-03-11T04:57:14.109Z,2.80
2019-03-11T04:59:43.063Z,2.77
2019-03-11T05:02:12.259Z,2.60
2019-03-11T05:04:41.117Z,2.20
2019-03-11T05:07:10.108Z,3.13
2019-03-11T05:09:39.032Z,2.43
2019-03-11T05:12:09.414Z,2.50
2019-03-11T05:14:38.657Z,2.90
2019-03-11T05:17:07.828Z,2.47
2019-03-11T05:19:39.401Z,3.23
2019-03-11T05:22:08.981Z,2.53
2019-03-11T05:24:37.939Z,2.37
2019-03-11T05:27:07.884Z,3.13
2019-03-11T05:29:37.339Z,2.60
2019-03-11T05:32:06.632Z,2.50
2019-03-11T05:34:35.917Z,2.60
2019-03-11T05:37:05.168Z,2.87
2019-03-11T05:39:34.342Z,3.17
2019-03-11T05:42:04.346Z,2.70
2019-03-11T05:44:33.548Z,2.57
2019-03-11T05:47:03.052Z,2.00
2019-03-11T05:49:32.143Z,2.87
2019-03-11T05:52:01.241Z,2.53
2019-03-11T05:54:30.065Z,1.87
2019-03-11T05:56:59.122Z,2.17
2019-03-11T05:59:28.673Z,2.23
2019-03-11T06:01:57.593Z,1.80
2019-03-11T06:04:26.514Z,3.10
2019-03-11T06:06:58.004Z,2.70
2019-03-11T06:09:28.093Z,2.53
2019-03-11T06:11:57.259Z,2.53
2019-03-11T06:14:26.491Z,3.03
2019-03-11T06:16:55.828Z,3.07
2019-03-11T06:19:24.708Z,2.93
2019-03-11T06:22:16.014Z,2.03
2019-03-11T06:24:44.980Z,2.77
2019-03-11T06:27:13.888Z,2.87
2019-03-11T06:29:46.435Z,2.07
2019-03-11T06:32:15.461Z,2.37
2019-03-11T06:34:44.451Z,2.50
2019-03-11T06:37:13.318Z,3.40
2019-03-11T06:39:44.725Z,2.87
2019-03-11T06:42:13.531Z,3.33
2019-03-11T06:44:42.630Z,1.97
2019-03-11T06:47:11.456Z,2.53
2019-03-11T06:49:44.322Z,3.00
2019-03-11T06:52:14.127Z,2.57
2019-03-11T06:54:47.346Z,2.70
2019-03-11T06:57:16.534Z,2.20
2019-03-11T06:59:57.796Z,3.00
2019-03-11T07:02:26.897Z,2.07
2019-03-11T07:04:55.720Z,2.13
2019-03-11T07:07:24.664Z,2.00
2019-03-11T07:09:53.933Z,2.83
2019-03-11T07:12:25.337Z,2.30
2019-03-11T07:15:01.308Z,2.13
2019-03-11T07:17:30.817Z,2.73
2019-03-11T07:20:00.345Z,2.47
2019-03-11T07:22:29.798Z,3.17
2019-03-11T07:25:02.065Z,2.57
2019-03-11T07:27:34.006Z,2.23
2019-03-11T07:30:04.861Z,2.40
2019-03-11T07:32:34.133Z,2.17
2019-03-11T07:35:08.510Z,2.23
2019-03-11T07:37:36.918Z,2.77
2019-03-11T07:40:06.702Z,2.87
2019-03-11T07:42:35.641Z,2.17
2019-03-11T07:45:04.731Z,2.80
2019-03-11T07:47:34.279Z,2.30
2019-03-11T07:50:03.285Z,3.20
2019-03-11T07:52:32.271Z,2.07
2019-03-11T07:55:01.494Z,2.30
2019-03-11T07:57:30.677Z,1.90
2019-03-11T07:59:59.602Z,2.20
2019-03-11T08:02:30.165Z,2.23
2019-03-11T08:05:00.602Z,3.10
2019-03-11T08:07:30.387Z,3.50
2019-03-11T08:10:02.725Z,4.47
2019-03-11T08:12:31.760Z,3.53
2019-03-11T08:15:00.808Z,2.33
2019-03-11T08:17:30.114Z,3.70
2019-03-11T08:20:00.065Z,3.00
2019-03-11T08:22:29.254Z,3.07
2019-03-11T08:24:58.185Z,2.90
2019-03-11T08:27:27.376Z,2.57
2019-03-11T08:29:56.523Z,4.03
2019-03-11T08:32:25.751Z,3.00
2019-03-11T08:34:57.873Z,3.63
2019-03-11T08:37:26.775Z,3.00
2019-03-11T08:39:55.693Z,3.17
2019-03-11T08:42:24.812Z,2.67
2019-03-11T08:44:56.041Z,3.43
2019-03-11T08:47:24.652Z,4.17
2019-03-11T08:49:53.923Z,4.20
2019-03-11T08:52:23.124Z,2.90
2019-03-11T08:54:52.010Z,3.93
2019-03-11T08:57:21.170Z,3.80
2019-03-11T08:59:50.330Z,3.90
2019-03-11T09:02:19.246Z,3.40
2019-03-11T09:04:48.076Z,3.23
2019-03-11T09:07:17.313Z,3.43
2019-03-11T09:09:46.195Z,3.80
2019-03-11T09:12:16.250Z,3.63
2019-03-11T09:14:45.137Z,4.03
2019-03-11T09:17:15.980Z,3.10
2019-03-11T09:19:44.873Z,4.13
2019-03-11T09:22:14.074Z,2.47
2019-03-11T09:24:44.601Z,3.30
2019-03-11T09:27:13.765Z,2.80
2019-03-11T09:29:42.997Z,2.77
2019-03-11T09:32:12.763Z,2.33
2019-03-11T09:34:43.221Z,3.80
2019-03-11T09:37:12.130Z,3.60
2019-03-11T09:39:41.736Z,3.10
2019-03-11T09:42:11.374Z,3.60
2019-03-11T09:44:40.364Z,4.67
2019-03-11T09:49:43.767Z,2.83
2019-03-11T09:52:13.003Z,2.87
2019-03-11T09:54:43.528Z,3.00
2019-03-11T09:57:13.482Z,3.50
2019-03-11T09:59:42.332Z,3.17
2019-03-11T10:02:12.470Z,2.80
2019-03-11T10:04:41.501Z,2.80
2019-03-11T10:07:10.416Z,3.50
2019-03-11T10:09:40.984Z,3.27
2019-03-11T10:12:09.873Z,3.20
2019-03-11T10:14:38.766Z,3.50
2019-03-11T10:17:07.953Z,3.40
2019-03-11T10:19:37.241Z,2.63
2019-03-11T10:22:06.217Z,2.57
2019-03-11T10:24:35.531Z,1.70
2019-03-11T10:27:04.998Z,2.53
2019-03-11T10:29:33.842Z,2.27
2019-03-11T10:32:02.848Z,2.17
2019-03-11T10:34:31.768Z,2.83
2019-03-11T10:37:03.486Z,2.87
2019-03-11T10:39:35.338Z,2.63
2019-03-11T10:42:07.365Z,2.57
2019-03-11T10:44:36.293Z,2.70
2019-03-11T10:47:05.529Z,2.90
2019-03-11T10:49:34.361Z,1.97
2019-03-11T10:52:03.422Z,1.77
2019-03-11T10:54:33.205Z,1.80
2019-03-11T10:57:02.919Z,1.83
2019-03-11T10:59:31.767Z,2.27
2019-03-11T11:02:00.900Z,2.80
2019-03-11T11:04:29.896Z,2.13
2019-03-11T11:06:59.404Z,2.40
2019-03-11T11:09:28.908Z,2.10
2019-03-11T11:11:57.854Z,2.43
2019-03-11T11:14:26.751Z,2.20
2019-03-11T11:16:55.905Z,2.27
2019-03-11T11:19:25.477Z,2.60
2019-03-11T11:21:55.311Z,2.60
2019-03-11T11:24:25.476Z,1.90
2019-03-11T11:26:58.541Z,2.30
2019-03-11T11:29:27.728Z,2.80
2019-03-11T11:31:56.679Z,2.67
2019-03-11T11:34:25.908Z,2.67
2019-03-11T11:36:56.507Z,2.60
2019-03-11T11:39:25.814Z,2.40
2019-03-11T11:41:55.161Z,2.53
2019-03-11T11:44:24.568Z,2.50
2019-03-11T11:46:53.656Z,2.80
2019-03-11T11:49:22.573Z,3.17
2019-03-11T11:51:51.499Z,3.87
2019-03-11T11:54:21.254Z,2.50
2019-03-11T11:56:50.721Z,2.93
2019-03-11T11:59:19.650Z,2.30
2019-03-11T12:02:03.609Z,2.13
2019-03-11T12:04:28.468Z,2.60
2019-03-11T12:07:01.034Z,2.77
2019-03-11T12:09:30.987Z,2.60
2019-03-11T12:12:00.649Z,2.17
2019-03-11T12:14:29.567Z,2.73
2019-03-11T12:16:59.451Z,2.03
2019-03-11T12:19:29.179Z,2.00
2019-03-11T12:21:58.391Z,2.60
2019-03-11T12:24:30.371Z,3.40
2019-03-11T12:26:59.620Z,2.00
2019-03-11T12:29:30.578Z,1.93
2019-03-11T12:31:59.304Z,2.30
2019-03-11T12:34:28.292Z,2.53
2019-03-11T12:36:57.372Z,2.00
2019-03-11T12:39:26.333Z,2.30
2019-03-11T12:41:57.945Z,2.10
2019-03-11T12:44:26.876Z,2.80
2019-03-11T12:46:56.642Z,1.93
2019-03-11T12:49:25.760Z,2.43
2019-03-11T12:51:56.479Z,2.67
2019-03-11T12:54:25.396Z,2.90
2019-03-11T12:56:54.311Z,3.23
2019-03-11T12:59:23.215Z,2.40
2019-03-11T13:01:52.218Z,2.57
2019-03-11T13:04:21.734Z,2.90
2019-03-11T13:06:50.687Z,2.47
2019-03-11T13:09:19.924Z,2.13
2019-03-11T13:11:50.543Z,2.10
2019-03-11T13:14:19.736Z,2.30
2019-03-11T13:16:53.657Z,2.57
2019-03-11T13:19:22.599Z,2.50
2019-03-11T13:21:51.853Z,2.70
2019-03-11T13:24:21.993Z,3.17
2019-03-11T13:26:50.951Z,2.20
2019-03-11T13:29:19.854Z,2.60
2019-03-11T13:31:49.218Z,2.10
2019-03-11T13:34:18.376Z,2.93
2019-03-11T13:36:47.664Z,2.97
2019-03-11T13:39:17.366Z,2.30
2019-03-11T13:41:46.292Z,2.30
2019-03-11T13:44:15.599Z,2.73
2019-03-11T13:46:44.637Z,2.73
2019-03-11T13:49:13.561Z,2.77
2019-03-11T13:51:43.569Z,2.50
2019-03-11T13:54:12.511Z,2.50
2019-03-11T13:56:41.703Z,3.07
2019-03-11T13:59:10.602Z,2.20
2019-03-11T14:01:40.077Z,2.30
2019-03-11T14:04:11.861Z,2.67
2019-03-11T14:06:41.178Z,2.30
2019-03-11T14:09:10.198Z,2.37
2019-03-11T14:11:39.228Z,2.00
2019-03-11T14:14:11.317Z,2.27
2019-03-11T14:16:40.342Z,2.43
2019-03-11T14:19:09.260Z,2.37
2019-03-11T14:21:38.094Z,3.40
2019-03-11T14:24:06.996Z,2.30
2019-03-11T14:26:35.934Z,2.50
2019-03-11T14:29:05.294Z,3.03
2019-03-11T14:31:34.245Z,2.77
2019-03-11T14:34:04.421Z,2.97
2019-03-11T14:36:33.351Z,3.27
2019-03-11T14:39:02.620Z,3.03
2019-03-11T14:41:31.766Z,3.27
2019-03-11T14:44:03.893Z,3.10
2019-03-11T14:46:32.873Z,3.53
2019-03-11T14:49:01.789Z,2.60
2019-03-11T14:51:30.779Z,3.57
2019-03-11T14:54:03.170Z,3.70
2019-03-11T14:56:32.476Z,3.03
2019-03-11T14:59:01.881Z,3.40
2019-03-11T15:01:34.621Z,3.50
2019-03-11T15:04:03.610Z,2.90
2019-03-11T15:06:32.905Z,3.90
2019-03-11T15:09:01.828Z,2.73
2019-03-11T15:11:31.062Z,3.27
2019-03-11T15:14:00.067Z,2.50
2019-03-11T15:16:29.090Z,3.23
2019-03-11T15:18:58.243Z,2.80
2019-03-11T15:21:35.193Z,2.50
2019-03-11T15:24:10.792Z,2.13
2019-03-11T15:26:39.812Z,3.17
2019-03-11T15:29:09.233Z,2.80
2019-03-11T15:31:44.270Z,2.67
2019-03-11T15:34:13.122Z,2.60
2019-03-11T15:36:42.320Z,2.17
2019-03-11T15:39:11.394Z,3.60
2019-03-11T15:41:40.711Z,3.10
2019-03-11T15:46:47.455Z,2.93
2019-03-11T15:49:18.518Z,3.47
2019-03-11T15:51:47.404Z,3.07
2019-03-11T15:54:16.614Z,2.93
2019-03-11T15:56:45.795Z,2.90
2019-03-11T15:59:15.106Z,2.67
2019-03-11T16:01:44.132Z,2.60
2019-03-11T16:04:13.224Z,2.27
2019-03-11T16:06:45.453Z,2.77
2019-03-11T16:09:19.134Z,3.20
2019-03-11T16:11:45.300Z,2.90
2019-03-11T16:14:14.311Z,2.73
2019-03-11T16:16:43.309Z,3.07
2019-03-11T16:19:12.570Z,4.10
2019-03-11T16:21:45.040Z,3.17
2019-03-11T16:24:14.456Z,2.87
2019-03-11T16:26:44.357Z,3.00
2019-03-11T16:29:13.599Z,2.90
2019-03-11T16:31:42.541Z,3.47
2019-03-11T16:34:11.819Z,2.93
2019-03-11T16:36:40.840Z,2.70
2019-03-11T16:39:10.287Z,2.97
2019-03-11T16:41:39.727Z,2.70
2019-03-11T16:44:10.103Z,3.47
2019-03-11T16:46:39.332Z,3.03
2019-03-11T16:49:08.750Z,3.60
2019-03-11T16:51:40.830Z,2.93
2019-03-11T16:54:10.481Z,2.67
2019-03-11T16:56:39.799Z,3.80
2019-03-11T16:59:08.827Z,3.03
2019-03-11T17:01:40.938Z,2.83
2019-03-11T17:04:11.957Z,3.20
2019-03-11T17:06:42.390Z,2.77
2019-03-11T17:09:11.655Z,3.37
2019-03-11T17:11:40.582Z,3.57
2019-03-11T17:14:09.759Z,2.20
2019-03-11T17:16:42.042Z,2.90
2019-03-11T17:19:11.038Z,3.40
2019-03-11T17:21:40.235Z,2.57
2019-03-11T17:24:09.127Z,3.47
2019-03-11T17:26:38.434Z,2.47
2019-03-11T17:29:07.300Z,3.17
2019-03-11T17:31:37.906Z,2.37
2019-03-11T17:34:07.270Z,2.77
2019-03-11T17:36:36.638Z,2.30
2019-03-11T17:39:07.550Z,2.37
2019-03-11T17:41:36.702Z,2.70
2019-03-11T17:44:05.825Z,2.43
2019-03-11T17:46:34.825Z,2.60
2019-03-11T17:49:05.873Z,2.63
2019-03-11T17:51:34.880Z,2.53
2019-03-11T17:54:03.885Z,3.10
2019-03-11T17:56:33.719Z,3.37
2019-03-11T17:59:02.809Z,3.10
2019-03-11T18:01:31.865Z,2.80
2019-03-11T18:04:02.444Z,3.10
2019-03-11T18:06:31.739Z,3.27
2019-03-11T18:09:00.769Z,2.87
2019-03-11T18:11:29.859Z,2.63
2019-03-11T18:13:58.868Z,3.40
2019-03-11T18:16:28.201Z,2.80
2019-03-11T18:18:58.261Z,2.37
2019-03-11T18:21:27.269Z,2.83
2019-03-11T18:23:56.726Z,3.33
2019-03-11T18:26:26.042Z,3.03
2019-03-11T18:28:55.003Z,2.50
2019-03-11T18:31:23.925Z,2.30
2019-03-11T18:33:52.971Z,3.13
2019-03-11T18:36:22.422Z,2.63
2019-03-11T18:38:51.487Z,3.10
2019-03-11T18:41:21.035Z,3.07
2019-03-11T18:43:50.114Z,2.37
2019-03-11T18:46:19.449Z,2.50
2019-03-11T18:48:48.714Z,2.60
2019-03-11T18:51:18.945Z,2.57
2019-03-11T18:53:47.816Z,3.67
2019-03-11T18:56:17.160Z,4.90
2019-03-11T18:58:46.185Z,5.50
2019-03-11T19:01:15.859Z,4.37
2019-03-11T19:03:47.878Z,11.33
2019-03-11T19:06:16.992Z,10.90
2019-03-11T19:08:46.057Z,3.70
2019-03-11T19:11:15.419Z,2.87
2019-03-11T19:13:44.800Z,4.70
2019-03-11T19:16:24.636Z,4.00
2019-03-11T19:18:53.605Z,2.70
2019-03-11T19:21:22.967Z,3.17
2019-03-11T19:23:53.030Z,2.87
2019-03-11T19:26:28.490Z,3.50
2019-03-11T19:28:57.892Z,3.10
2019-03-11T19:31:28.870Z,3.13
2019-03-11T19:33:59.282Z,3.00
2019-03-11T19:36:28.318Z,2.83
2019-03-11T19:38:57.428Z,3.10
2019-03-11T19:41:26.502Z,3.70
2019-03-11T19:43:56.067Z,2.00
2019-03-11T19:46:26.308Z,3.00
2019-03-11T19:48:55.517Z,2.23
2019-03-11T19:51:25.125Z,3.20
2019-03-11T19:53:54.721Z,2.77
2019-03-11T19:56:24.660Z,2.10
2019-03-11T19:58:59.695Z,1.93
2019-03-11T20:01:29.816Z,2.30
2019-03-11T20:03:58.771Z,2.67
2019-03-11T20:06:29.611Z,2.70
2019-03-11T20:09:00.058Z,2.50
2019-03-11T20:11:29.397Z,2.80
2019-03-11T20:13:58.336Z,1.97
2019-03-11T20:16:27.354Z,2.53
2019-03-11T20:18:56.420Z,2.47
2019-03-11T20:21:28.660Z,3.13
2019-03-11T20:23:57.725Z,2.87
2019-03-11T20:26:29.197Z,2.20
2019-03-11T20:28:58.779Z,3.13
2019-03-11T20:31:27.762Z,3.13
2019-03-11T20:33:56.758Z,3.33
2019-03-11T20:36:25.863Z,2.93
2019-03-11T20:38:55.077Z,2.80
2019-03-11T20:41:24.444Z,2.80
2019-03-11T20:43:53.721Z,3.27
2019-03-11T20:46:22.650Z,3.53
2019-03-11T20:48:51.745Z,3.03
2019-03-11T20:51:20.898Z,3.93
2019-03-11T20:53:50.608Z,3.33
2019-03-11T20:56:20.050Z,3.80
2019-03-11T20:58:49.091Z,3.57
2019-03-11T21:01:18.164Z,3.70
2019-03-11T21:03:47.238Z,3.73
2019-03-11T21:06:16.807Z,5.00
2019-03-11T21:08:46.247Z,3.47
2019-03-11T21:11:15.553Z,3.27
2019-03-11T21:13:45.652Z,3.93
2019-03-11T21:16:14.680Z,4.93
2019-03-11T21:18:43.695Z,3.40
2019-03-11T21:21:13.451Z,3.00
2019-03-11T21:23:42.485Z,2.70
2019-03-11T21:26:11.478Z,2.53
2019-03-11T21:28:41.748Z,2.70
2019-03-11T21:31:10.801Z,2.57
2019-03-11T21:33:39.763Z,2.27
2019-03-11T21:36:10.018Z,2.90
2019-03-11T21:38:42.670Z,2.37
2019-03-11T21:41:13.763Z,2.87
2019-03-11T21:43:43.000Z,2.50
2019-03-11T21:46:12.825Z,2.83
2019-03-11T21:48:43.801Z,2.57
2019-03-11T21:51:12.995Z,2.63
2019-03-11T21:53:42.209Z,2.50
2019-03-11T21:56:11.259Z,2.83
2019-03-11T21:58:40.423Z,2.77
2019-03-11T22:01:09.893Z,2.73
2019-03-11T22:03:38.932Z,3.00
2019-03-11T22:06:07.940Z,2.57
2019-03-11T22:08:37.014Z,3.20
2019-03-11T22:11:06.091Z,2.60
2019-03-11T22:13:35.660Z,2.87
2019-03-11T22:16:08.946Z,3.27
2019-03-11T22:18:38.399Z,3.50
2019-03-11T22:21:07.367Z,3.10
2019-03-11T22:23:36.739Z,3.43
2019-03-11T22:26:06.014Z,3.07
2019-03-11T22:28:34.979Z,3.13
2019-03-11T22:31:03.899Z,3.50
2019-03-11T22:33:34.896Z,3.27
2019-03-11T22:36:03.991Z,3.37
2019-03-11T22:38:32.933Z,3.13
2019-03-11T22:41:01.925Z,3.40
2019-03-11T22:43:35.021Z,2.83
2019-03-11T22:46:04.327Z,2.63
2019-03-11T22:48:33.443Z,2.40
2019-03-11T22:51:02.396Z,3.10
2019-03-11T22:53:34.641Z,2.60
2019-03-11T22:56:03.919Z,2.77
2019-03-11T22:58:33.764Z,2.57
2019-03-11T23:01:03.306Z,3.17
2019-03-11T23:03:32.181Z,3.43
2019-03-11T23:06:02.397Z,3.00
2019-03-11T23:08:31.438Z,3.27
2019-03-11T23:11:00.629Z,3.03
2019-03-11T23:13:31.641Z,2.90
2019-03-11T23:16:00.549Z,2.80
2019-03-11T23:18:30.564Z,2.90
2019-03-11T23:20:59.491Z,2.70
2019-03-11T23:23:31.489Z,2.87
2019-03-11T23:26:00.485Z,3.00
2019-03-11T23:28:30.664Z,3.10
2019-03-11T23:30:59.936Z,2.83
2019-03-11T23:33:28.932Z,2.73
2019-03-11T23:35:57.806Z,3.00
2019-03-11T23:38:28.071Z,2.90
2019-03-11T23:40:56.965Z,3.10
2019-03-11T23:43:26.960Z,2.80
2019-03-11T23:45:56.122Z,3.10
2019-03-11T23:48:25.017Z,3.33
2019-03-11T23:50:54.193Z,2.77
2019-03-11T23:53:23.397Z,3.20
2019-03-11T23:55:52.626Z,3.43
2019-03-11T23:58:22.378Z,3.00
